sensor_id;sensor_type;location;lat;lon;timestamp;pressure;altitude;pressure_sealevel;temperature;humidity
48553;BME280;34335;51.566;6.994;2023-03-03T00:00:39;101763.34;;;0.84;100.00
48553;BME280;34335;51.566;6.994;2023-03-03T00:03:07;101759.44;;;0.90;100.00
48553;BME280;34335;51.566;6.994;2023-03-03T00:05:35;101766.50;;;0.95;100.00
48553;BME280;34335;51.566;6.994;2023-03-03T00:08:01;101758.72;;;0.93;100.00
48553;BME280;34335;51.566;6.994;2023-03-03T00:10:27;101761.38;;;0.95;100.00
48553;BME280;34335;51.566;6.994;2023-03-03T00:12:52;101769.84;;;0.93;100.00
48553;BME280;34335;51.566;6.994;2023-03-03T00:15:23;101771.63;;;0.95;100.00
48553;BME280;34335;51.566;6.994;2023-03-03T00:17:49;101770.50;;;0.89;100.00
48553;BME280;34335;51.566;6.994;2023-03-03T00:20:37;101763.06;;;0.94;100.00
48553;BME280;34335;51.566;6.994;2023-03-03T00:25:43;101769.16;;;0.96;100.00
48553;BME280;34335;51.566;6.994;2023-03-03T00:28:21;101764.72;;;0.93;100.00
48553;BME280;34335;51.566;6.994;2023-03-03T00:30:47;101767.28;;;0.93;100.00
48553;BME280;34335;51.566;6.994;2023-03-03T00:33:30;101764.72;;;0.93;100.00
48553;BME280;34335;51.566;6.994;2023-03-03T00:38:38;101765.19;;;0.86;100.00
48553;BME280;34335;51.566;6.994;2023-03-03T00:41:14;101771.44;;;0.91;100.00
48553;BME280;34335;51.566;6.994;2023-03-03T00:43:40;101780.09;;;0.93;100.00
48553;BME280;34335;51.566;6.994;2023-03-03T00:46:07;101788.41;;;0.89;100.00
48553;BME280;34335;51.566;6.994;2023-03-03T00:53:47;101787.91;;;0.80;100.00
48553;BME280;34335;51.566;6.994;2023-03-03T00:56:13;101792.38;;;0.84;100.00
48553;BME280;34335;51.566;6.994;2023-03-03T00:58:38;101783.31;;;0.74;100.00
48553;BME280;34335;51.566;6.994;2023-03-03T01:01:04;101788.59;;;0.77;100.00
48553;BME280;34335;51.566;6.994;2023-03-03T01:03:29;101791.88;;;0.75;100.00
48553;BME280;34335;51.566;6.994;2023-03-03T01:05:54;101790.09;;;0.74;100.00
48553;BME280;34335;51.566;6.994;2023-03-03T01:08:20;101790.88;;;0.73;100.00
48553;BME280;34335;51.566;6.994;2023-03-03T01:10:48;101785.94;;;0.76;100.00
48553;BME280;34335;51.566;6.994;2023-03-03T01:13:19;101789.94;;;0.71;100.00
48553;BME280;34335;51.566;6.994;2023-03-03T01:15:45;101792.75;;;0.75;100.00
48553;BME280;34335;51.566;6.994;2023-03-03T01:18:11;101788.25;;;0.71;100.00
48553;BME280;34335;51.566;6.994;2023-03-03T01:20:36;101791.00;;;0.74;100.00
48553;BME280;34335;51.566;6.994;2023-03-03T01:23:02;101787.66;;;0.75;100.00
48553;BME280;34335;51.566;6.994;2023-03-03T01:25:27;101785.09;;;0.60;100.00
48553;BME280;34335;51.566;6.994;2023-03-03T01:27:53;101785.25;;;0.64;100.00
48553;BME280;34335;51.566;6.994;2023-03-03T01:30:18;101782.25;;;0.71;100.00
48553;BME280;34335;51.566;6.994;2023-03-03T01:32:43;101787.38;;;0.71;100.00
48553;BME280;34335;51.566;6.994;2023-03-03T01:35:09;101788.25;;;0.71;100.00
48553;BME280;34335;51.566;6.994;2023-03-03T01:37:34;101791.59;;;0.70;100.00
48553;BME280;34335;51.566;6.994;2023-03-03T01:40:04;101791.72;;;0.72;100.00
48553;BME280;34335;51.566;6.994;2023-03-03T01:42:30;101790.75;;;0.70;100.00
48553;BME280;34335;51.566;6.994;2023-03-03T01:48:08;101789.94;;;0.71;100.00
48553;BME280;34335;51.566;6.994;2023-03-03T01:50:42;101786.16;;;0.64;100.00
48553;BME280;34335;51.566;6.994;2023-03-03T01:53:21;101787.38;;;0.71;100.00
48553;BME280;34335;51.566;6.994;2023-03-03T01:55:49;101778.53;;;0.66;100.00
48553;BME280;34335;51.566;6.994;2023-03-03T01:58:27;101785.44;;;0.67;100.00
48553;BME280;34335;51.566;6.994;2023-03-03T02:00:59;101780.94;;;0.63;100.00
48553;BME280;34335;51.566;6.994;2023-03-03T02:03:26;101773.94;;;0.60;100.00
48553;BME280;34335;51.566;6.994;2023-03-03T02:05:54;101774.75;;;0.59;100.00
48553;BME280;34335;51.566;6.994;2023-03-03T02:08:23;101773.28;;;0.63;100.00
48553;BME280;34335;51.566;6.994;2023-03-03T02:10:51;101776.25;;;0.55;100.00
48553;BME280;34335;51.566;6.994;2023-03-03T02:13:17;101777.50;;;0.47;100.00
48553;BME280;34335;51.566;6.994;2023-03-03T02:15:42;101775.66;;;0.44;100.00
48553;BME280;34335;51.566;6.994;2023-03-03T02:18:16;101775.47;;;0.41;100.00
48553;BME280;34335;51.566;6.994;2023-03-03T02:23:41;101777.41;;;0.30;100.00
48553;BME280;34335;51.566;6.994;2023-03-03T02:26:21;101791.19;;;0.33;100.00
48553;BME280;34335;51.566;6.994;2023-03-03T02:28:48;101790.47;;;0.35;100.00
48553;BME280;34335;51.566;6.994;2023-03-03T02:31:17;101786.66;;;0.28;100.00
48553;BME280;34335;51.566;6.994;2023-03-03T02:33:46;101783.13;;;0.26;100.00
48553;BME280;34335;51.566;6.994;2023-03-03T02:36:28;101788.25;;;0.26;100.00
48553;BME280;34335;51.566;6.994;2023-03-03T02:39:21;101778.91;;;0.27;100.00
48553;BME280;34335;51.566;6.994;2023-03-03T02:44:21;101788.16;;;0.25;100.00
48553;BME280;34335;51.566;6.994;2023-03-03T02:46:48;101771.56;;;0.18;100.00
48553;BME280;34335;51.566;6.994;2023-03-03T02:49:16;101774.66;;;0.27;100.00
48553;BME280;34335;51.566;6.994;2023-03-03T02:51:42;101778.19;;;0.29;100.00
48553;BME280;34335;51.566;6.994;2023-03-03T02:54:09;101786.66;;;0.28;100.00
48553;BME280;34335;51.566;6.994;2023-03-03T02:56:35;101776.78;;;0.35;100.00
48553;BME280;34335;51.566;6.994;2023-03-03T02:59:00;101777.41;;;0.30;100.00
48553;BME280;34335;51.566;6.994;2023-03-03T03:01:26;101776.09;;;0.37;100.00
48553;BME280;34335;51.566;6.994;2023-03-03T03:03:51;101785.00;;;0.44;100.00
48553;BME280;34335;51.566;6.994;2023-03-03T03:06:17;101784.16;;;0.15;100.00
48553;BME280;34335;51.566;6.994;2023-03-03T03:08:42;101783.91;;;0.25;100.00
48553;BME280;34335;51.566;6.994;2023-03-03T03:11:07;101783.59;;;0.34;100.00
48553;BME280;34335;51.566;6.994;2023-03-03T03:13:33;101787.91;;;0.35;100.00
48553;BME280;34335;51.566;6.994;2023-03-03T03:15:59;101793.81;;;0.34;100.00
48553;BME280;34335;51.566;6.994;2023-03-03T03:18:24;101796.88;;;0.13;100.00
48553;BME280;34335;51.566;6.994;2023-03-03T03:20:50;101795.81;;;0.10;100.00
48553;BME280;34335;51.566;6.994;2023-03-03T03:23:15;101784.72;;;0.09;100.00
48553;BME280;34335;51.566;6.994;2023-03-03T03:25:41;101792.81;;;0.17;100.00
48553;BME280;34335;51.566;6.994;2023-03-03T03:28:14;101789.00;;;-0.05;100.00
48553;BME280;34335;51.566;6.994;2023-03-03T03:30:40;101797.66;;;0.12;100.00
48553;BME280;34335;51.566;6.994;2023-03-03T03:33:05;101790.75;;;-0.04;100.00
48553;BME280;34335;51.566;6.994;2023-03-03T03:35:32;101791.03;;;0.01;100.00
48553;BME280;34335;51.566;6.994;2023-03-03T03:37:57;101793.00;;;0.05;100.00
48553;BME280;34335;51.566;6.994;2023-03-03T03:40:22;101805.50;;;0.01;100.00
48553;BME280;34335;51.566;6.994;2023-03-03T03:42:49;101805.22;;;-0.04;100.00
48553;BME280;34335;51.566;6.994;2023-03-03T03:45:14;101809.44;;;-0.05;100.00
48553;BME280;34335;51.566;6.994;2023-03-03T03:47:40;101816.97;;;-0.08;100.00
48553;BME280;34335;51.566;6.994;2023-03-03T03:50:07;101812.91;;;-0.04;100.00
48553;BME280;34335;51.566;6.994;2023-03-03T03:52:33;101810.81;;;0.04;100.00
48553;BME280;34335;51.566;6.994;2023-03-03T03:54:58;101808.94;;;0.01;100.00
48553;BME280;34335;51.566;6.994;2023-03-03T03:57:24;101814.25;;;0.04;100.00
48553;BME280;34335;51.566;6.994;2023-03-03T03:59:49;101818.84;;;0.10;100.00
48553;BME280;34335;51.566;6.994;2023-03-03T04:02:14;101820.25;;;0.05;100.00
48553;BME280;34335;51.566;6.994;2023-03-03T04:04:40;101812.59;;;0.05;100.00
48553;BME280;34335;51.566;6.994;2023-03-03T04:07:05;101810.19;;;0.08;100.00
48553;BME280;34335;51.566;6.994;2023-03-03T04:09:30;101812.94;;;0.11;100.00
48553;BME280;34335;51.566;6.994;2023-03-03T04:11:55;101813.13;;;0.14;100.00
48553;BME280;34335;51.566;6.994;2023-03-03T04:14:21;101819.13;;;0.14;100.00
48553;BME280;34335;51.566;6.994;2023-03-03T04:16:46;101807.19;;;0.15;100.00
48553;BME280;34335;51.566;6.994;2023-03-03T04:19:11;101805.28;;;0.11;100.00
48553;BME280;34335;51.566;6.994;2023-03-03T04:21:36;101810.09;;;0.06;100.00
48553;BME280;34335;51.566;6.994;2023-03-03T04:24:02;101806.56;;;0.04;100.00
48553;BME280;34335;51.566;6.994;2023-03-03T04:26:27;101809.41;;;0.09;100.00
48553;BME280;34335;51.566;6.994;2023-03-03T04:28:52;101809.41;;;0.09;100.00
48553;BME280;34335;51.566;6.994;2023-03-03T04:31:18;101813.13;;;0.14;100.00
48553;BME280;34335;51.566;6.994;2023-03-03T04:33:44;101805.53;;;0.15;100.00
48553;BME280;34335;51.566;6.994;2023-03-03T04:36:10;101811.88;;;0.07;100.00
48553;BME280;34335;51.566;6.994;2023-03-03T04:38:35;101814.72;;;0.12;100.00
48553;BME280;34335;51.566;6.994;2023-03-03T04:41:00;101812.75;;;0.08;100.00
48553;BME280;34335;51.566;6.994;2023-03-03T04:43:26;101818.06;;;0.11;100.00
48553;BME280;34335;51.566;6.994;2023-03-03T04:45:51;101817.28;;;0.12;100.00
48553;BME280;34335;51.566;6.994;2023-03-03T04:48:16;101805.28;;;0.11;100.00
48553;BME280;34335;51.566;6.994;2023-03-03T04:50:41;101818.06;;;0.11;100.00
48553;BME280;34335;51.566;6.994;2023-03-03T04:53:07;101817.06;;;0.09;100.00
48553;BME280;34335;51.566;6.994;2023-03-03T04:55:35;101813.53;;;0.07;100.00
48553;BME280;34335;51.566;6.994;2023-03-03T04:58:01;101811.69;;;0.04;100.00
48553;BME280;34335;51.566;6.994;2023-03-03T05:00:26;101812.59;;;0.05;100.00
48553;BME280;34335;51.566;6.994;2023-03-03T05:02:51;101812.59;;;0.05;100.00
48553;BME280;34335;51.566;6.994;2023-03-03T05:05:17;101816.81;;;0.04;100.00
48553;BME280;34335;51.566;6.994;2023-03-03T05:07:42;101809.91;;;0.03;100.00
48553;BME280;34335;51.566;6.994;2023-03-03T05:10:08;101817.50;;;0.02;100.00
48553;BME280;34335;51.566;6.994;2023-03-03T05:12:33;101816.09;;;0.07;100.00
48553;BME280;34335;51.566;6.994;2023-03-03T05:14:58;101813.53;;;0.07;100.00
48553;BME280;34335;51.566;6.994;2023-03-03T05:17:24;101814.31;;;0.06;100.00
48553;BME280;34335;51.566;6.994;2023-03-03T05:19:49;101815.03;;;0.03;100.00
48553;BME280;34335;51.566;6.994;2023-03-03T05:22:14;101812.41;;;0.02;100.00
48553;BME280;34335;51.566;6.994;2023-03-03T05:24:40;101811.50;;;0.01;100.00
48553;BME280;34335;51.566;6.994;2023-03-03T05:27:07;101808.94;;;0.01;100.00
48553;BME280;34335;51.566;6.994;2023-03-03T05:29:32;101815.03;;;0.03;100.00
48553;BME280;34335;51.566;6.994;2023-03-03T05:31:58;101815.94;;;0.04;100.00
48553;BME280;34335;51.566;6.994;2023-03-03T05:34:23;101821.44;;;-0.04;100.00
48553;BME280;34335;51.566;6.994;2023-03-03T05:36:48;101826.69;;;-0.02;100.00
48553;BME280;34335;51.566;6.994;2023-03-03T05:39:13;101825.41;;;-0.09;100.00
48553;BME280;34335;51.566;6.994;2023-03-03T05:41:39;101825.41;;;-0.09;100.00
48553;BME280;34335;51.566;6.994;2023-03-03T05:44:04;101827.00;;;-0.11;100.00
48553;BME280;34335;51.566;6.994;2023-03-03T05:46:30;101820.91;;;-0.13;100.00
48553;BME280;34335;51.566;6.994;2023-03-03T05:48:55;101822.66;;;-0.12;100.00
48553;BME280;34335;51.566;6.994;2023-03-03T05:51:20;101824.63;;;-0.08;100.00
48553;BME280;34335;51.566;6.994;2023-03-03T05:53:45;101827.28;;;-0.06;100.00
48553;BME280;34335;51.566;6.994;2023-03-03T05:56:11;101824.13;;;-0.02;100.00
48553;BME280;34335;51.566;6.994;2023-03-03T05:58:36;101828.75;;;-0.10;100.00
48553;BME280;34335;51.566;6.994;2023-03-03T06:01:01;101830.72;;;-0.06;100.00
48553;BME280;34335;51.566;6.994;2023-03-03T06:03:27;101830.72;;;-0.06;100.00
48553;BME280;34335;51.566;6.994;2023-03-03T06:05:52;101837.31;;;-0.09;100.00
48553;BME280;34335;51.566;6.994;2023-03-03T06:08:17;101832.66;;;-0.02;100.00
48553;BME280;34335;51.566;6.994;2023-03-03T06:10:43;101842.81;;;-0.03;100.00
48553;BME280;34335;51.566;6.994;2023-03-03T06:13:08;101838.56;;;-0.03;100.00
48553;BME280;34335;51.566;6.994;2023-03-03T06:15:33;101844.66;;;-0.01;100.00
48553;BME280;34335;51.566;6.994;2023-03-03T06:17:59;101841.13;;;-0.03;100.00
48553;BME280;34335;51.566;6.994;2023-03-03T06:20:24;101839.63;;;0.01;100.00
48553;BME280;34335;51.566;6.994;2023-03-03T06:22:49;101846.44;;;0.01;100.00
48553;BME280;34335;51.566;6.994;2023-03-03T06:25:15;101856.66;;;0.01;100.00
48553;BME280;34335;51.566;6.994;2023-03-03T06:27:40;101862.56;;;-0.01;100.00
48553;BME280;34335;51.566;6.994;2023-03-03T06:30:06;101862.56;;;-0.01;100.00
48553;BME280;34335;51.566;6.994;2023-03-03T06:32:31;101861.59;;;-0.03;100.00
48553;BME280;34335;51.566;6.994;2023-03-03T06:34:56;101857.38;;;-0.02;100.00
48553;BME280;34335;51.566;6.994;2023-03-03T06:37:22;101865.22;;;0.01;100.00
48553;BME280;34335;51.566;6.994;2023-03-03T06:39:47;101866.63;;;-0.04;100.00
48553;BME280;34335;51.566;6.994;2023-03-03T06:42:12;101873.59;;;-0.02;100.00
48553;BME280;34335;51.566;6.994;2023-03-03T06:44:38;101865.81;;;-0.03;100.00
48553;BME280;34335;51.566;6.994;2023-03-03T06:47:03;101866.63;;;-0.04;100.00
48553;BME280;34335;51.566;6.994;2023-03-03T06:49:30;101873.38;;;-0.05;100.00
48553;BME280;34335;51.566;6.994;2023-03-03T06:51:55;101876.94;;;-0.03;100.00
48553;BME280;34335;51.566;6.994;2023-03-03T06:54:26;101882.81;;;-0.04;100.00
48553;BME280;34335;51.566;6.994;2023-03-03T06:56:56;101882.25;;;0.01;100.00
48553;BME280;34335;51.566;6.994;2023-03-03T06:59:22;101882.31;;;0.02;100.00
48553;BME280;34335;51.566;6.994;2023-03-03T07:01:48;101882.25;;;0.01;100.00
48553;BME280;34335;51.566;6.994;2023-03-03T07:04:28;101882.44;;;0.04;100.00
48553;BME280;34335;51.566;6.994;2023-03-03T07:07:03;101879.97;;;0.05;100.00
48553;BME280;34335;51.566;6.994;2023-03-03T07:09:30;101885.94;;;0.06;100.00
48553;BME280;34335;51.566;6.994;2023-03-03T07:12:17;101885.34;;;0.10;100.00
48553;BME280;34335;51.566;6.994;2023-03-03T07:14:45;101887.03;;;0.09;100.00
48553;BME280;34335;51.566;6.994;2023-03-03T07:17:17;101903.25;;;0.10;100.00
48553;BME280;34335;51.566;6.994;2023-03-03T07:19:43;101898.16;;;0.10;100.00
48553;BME280;34335;51.566;6.994;2023-03-03T07:22:19;101901.00;;;0.14;100.00
48553;BME280;34335;51.566;6.994;2023-03-03T07:24:56;101900.19;;;0.15;100.00
48553;BME280;34335;51.566;6.994;2023-03-03T07:27:27;101901.84;;;0.15;100.00
48553;BME280;34335;51.566;6.994;2023-03-03T07:32:45;101907.38;;;0.21;100.00
48553;BME280;34335;51.566;6.994;2023-03-03T07:35:36;101905.59;;;0.20;100.00
48553;BME280;34335;51.566;6.994;2023-03-03T07:38:20;101910.63;;;0.19;100.00
48553;BME280;34335;51.566;6.994;2023-03-03T07:40:52;101910.91;;;0.23;100.00
48553;BME280;34335;51.566;6.994;2023-03-03T07:43:36;101912.56;;;0.23;100.00
48553;BME280;34335;51.566;6.994;2023-03-03T07:46:24;101923.69;;;0.23;100.00
48553;BME280;34335;51.566;6.994;2023-03-03T07:48:52;101924.38;;;0.21;100.00
48553;BME280;34335;51.566;6.994;2023-03-03T07:51:28;101934.72;;;0.22;100.00
48553;BME280;34335;51.566;6.994;2023-03-03T07:56:37;101931.53;;;0.26;100.00
48553;BME280;34335;51.566;6.994;2023-03-03T07:59:17;101942.44;;;0.37;100.00
48553;BME280;34335;51.566;6.994;2023-03-03T08:01:46;101941.06;;;0.57;100.00
48553;BME280;34335;51.566;6.994;2023-03-03T08:09:15;101950.72;;;0.61;100.00
48553;BME280;34335;51.566;6.994;2023-03-03T08:14:34;101956.63;;;0.60;100.00
48553;BME280;34335;51.566;6.994;2023-03-03T08:17:01;101957.41;;;0.59;100.00
48553;BME280;34335;51.566;6.994;2023-03-03T08:19:32;101957.03;;;0.53;100.00
48553;BME280;34335;51.566;6.994;2023-03-03T08:22:05;101956.88;;;0.50;100.00
48553;BME280;34335;51.566;6.994;2023-03-03T08:24:33;101958.44;;;0.48;100.00
48553;BME280;34335;51.566;6.994;2023-03-03T08:26:58;101960.22;;;0.49;100.00
48553;BME280;34335;51.566;6.994;2023-03-03T08:29:23;101960.28;;;0.51;100.00
48553;BME280;34335;51.566;6.994;2023-03-03T08:31:49;101967.47;;;0.56;100.00
48553;BME280;34335;51.566;6.994;2023-03-03T08:34:14;101967.75;;;0.61;100.00
48553;BME280;34335;51.566;6.994;2023-03-03T08:36:39;101968.38;;;0.57;100.00
48553;BME280;34335;51.566;6.994;2023-03-03T08:39:06;101961.84;;;0.62;100.00
48553;BME280;34335;51.566;6.994;2023-03-03T08:41:31;101968.81;;;0.65;100.00
48553;BME280;34335;51.566;6.994;2023-03-03T08:43:56;101966.25;;;0.65;100.00
48553;BME280;34335;51.566;6.994;2023-03-03T08:46:22;101971.56;;;0.68;100.00
48553;BME280;34335;51.566;6.994;2023-03-03T08:48:47;101978.09;;;0.63;100.00
48553;BME280;34335;51.566;6.994;2023-03-03T08:51:13;101974.03;;;0.66;100.00
48553;BME280;34335;51.566;6.994;2023-03-03T08:53:38;101977.28;;;0.64;100.00
48553;BME280;34335;51.566;6.994;2023-03-03T08:56:04;101979.84;;;0.64;100.00
48553;BME280;34335;51.566;6.994;2023-03-03T08:58:31;101975.88;;;0.69;100.00
48553;BME280;34335;51.566;6.994;2023-03-03T09:00:56;101973.88;;;0.78;100.00
48553;BME280;34335;51.566;6.994;2023-03-03T09:03:23;101981.84;;;0.83;100.00
48553;BME280;34335;51.566;6.994;2023-03-03T09:05:48;101987.75;;;0.82;100.00
48553;BME280;34335;51.566;6.994;2023-03-03T09:08:13;101988.44;;;0.79;100.00
48553;BME280;34335;51.566;6.994;2023-03-03T09:10:38;101990.22;;;0.80;100.00
48553;BME280;34335;51.566;6.994;2023-03-03T09:13:13;101993.75;;;0.82;100.00
48553;BME280;34335;51.566;6.994;2023-03-03T09:15:39;101998.47;;;0.89;100.00
48553;BME280;34335;51.566;6.994;2023-03-03T09:20:40;101998.19;;;0.85;100.00
48553;BME280;34335;51.566;6.994;2023-03-03T09:25:51;101996.50;;;0.85;100.00
48553;BME280;34335;51.566;6.994;2023-03-03T09:30:48;101995.25;;;0.93;100.00
48553;BME280;34335;51.566;6.994;2023-03-03T09:36:35;102004.28;;;1.02;100.00
48553;BME280;34335;51.566;6.994;2023-03-03T09:39:13;101997.59;;;1.19;100.00
48553;BME280;34335;51.566;6.994;2023-03-03T09:50:27;101999.19;;;1.17;100.00
48553;BME280;34335;51.566;6.994;2023-03-03T09:53:18;101996.53;;;1.15;100.00
48553;BME280;34335;51.566;6.994;2023-03-03T10:06:33;102015.91;;;1.25;100.00
48553;BME280;34335;51.566;6.994;2023-03-03T10:09:32;102018.94;;;0.89;100.00
48553;BME280;34335;51.566;6.994;2023-03-03T10:12:19;102019.88;;;1.20;100.00
48553;BME280;34335;51.566;6.994;2023-03-03T10:15:09;102021.38;;;1.31;100.00
48553;BME280;34335;51.566;6.994;2023-03-03T10:17:53;102022.69;;;1.39;100.00
48553;BME280;34335;51.566;6.994;2023-03-03T10:20:29;102023.94;;;1.46;100.00
48553;BME280;34335;51.566;6.994;2023-03-03T10:23:19;102026.25;;;1.57;100.00
48553;BME280;34335;51.566;6.994;2023-03-03T10:25:54;102029.78;;;1.59;100.00
48553;BME280;34335;51.566;6.994;2023-03-03T10:37:31;102035.00;;;1.60;100.00
48553;BME280;34335;51.566;6.994;2023-03-03T10:40:08;102038.59;;;1.64;100.00
48553;BME280;34335;51.566;6.994;2023-03-03T10:48:05;102034.34;;;1.79;100.00
48553;BME280;34335;51.566;6.994;2023-03-03T10:53:34;102030.38;;;1.84;100.00
48553;BME280;34335;51.566;6.994;2023-03-03T10:56:24;102030.09;;;1.95;100.00
48553;BME280;34335;51.566;6.994;2023-03-03T10:59:13;102029.03;;;1.91;100.00
48553;BME280;34335;51.566;6.994;2023-03-03T11:02:01;102026.06;;;2.00;100.00
48553;BME280;34335;51.566;6.994;2023-03-03T11:04:51;102028.91;;;2.05;100.00
48553;BME280;34335;51.566;6.994;2023-03-03T11:10:23;102031.56;;;2.06;100.00
48553;BME280;34335;51.566;6.994;2023-03-03T11:13:00;102030.13;;;2.11;100.00
48553;BME280;34335;51.566;6.994;2023-03-03T11:18:31;102038.31;;;2.21;100.00
48553;BME280;34335;51.566;6.994;2023-03-03T11:21:25;102029.03;;;2.23;100.00
48553;BME280;34335;51.566;6.994;2023-03-03T11:23:56;102032.09;;;2.32;100.00
48553;BME280;34335;51.566;6.994;2023-03-03T11:35:08;102023.06;;;2.72;100.00
48553;BME280;34335;51.566;6.994;2023-03-03T11:37:57;102016.72;;;2.82;100.00
48553;BME280;34335;51.566;6.994;2023-03-03T11:40:40;102017.69;;;2.84;100.00
48553;BME280;34335;51.566;6.994;2023-03-03T11:43:15;102009.41;;;2.73;100.00
48553;BME280;34335;51.566;6.994;2023-03-03T11:45:46;102012.69;;;2.87;100.00
48553;BME280;34335;51.566;6.994;2023-03-03T11:48:26;102014.94;;;2.97;100.00
48553;BME280;34335;51.566;6.994;2023-03-03T11:51:12;102000.53;;;3.01;100.00
48553;BME280;34335;51.566;6.994;2023-03-03T11:58:48;101996.66;;;3.25;100.00
48553;BME280;34335;51.566;6.994;2023-03-03T12:01:21;101991.75;;;3.30;100.00
48553;BME280;34335;51.566;6.994;2023-03-03T12:04:01;101987.50;;;3.49;100.00
48553;BME280;34335;51.566;6.994;2023-03-03T12:12:37;101995.81;;;3.79;100.00
48553;BME280;34335;51.566;6.994;2023-03-03T12:15:14;101991.25;;;3.73;100.00
48553;BME280;34335;51.566;6.994;2023-03-03T12:17:56;101989.75;;;4.15;100.00
48553;BME280;34335;51.566;6.994;2023-03-03T12:20:39;101979.94;;;4.45;100.00
48553;BME280;34335;51.566;6.994;2023-03-03T12:23:25;101977.09;;;4.78;100.00
48553;BME280;34335;51.566;6.994;2023-03-03T12:28:57;101983.00;;;4.76;100.00
48553;BME280;34335;51.566;6.994;2023-03-03T12:31:41;101974.41;;;5.60;100.00
48553;BME280;34335;51.566;6.994;2023-03-03T12:34:23;101975.63;;;6.36;100.00
48553;BME280;34335;51.566;6.994;2023-03-03T12:40:00;101955.47;;;7.54;100.00
48553;BME280;34335;51.566;6.994;2023-03-03T12:42:41;101970.78;;;7.75;100.00
48553;BME280;34335;51.566;6.994;2023-03-03T12:48:44;101962.59;;;7.08;100.00
48553;BME280;34335;51.566;6.994;2023-03-03T12:56:55;101957.56;;;7.66;100.00
48553;BME280;34335;51.566;6.994;2023-03-03T13:02:42;101954.91;;;8.22;100.00
48553;BME280;34335;51.566;6.994;2023-03-03T13:05:20;101955.91;;;8.57;100.00
48553;BME280;34335;51.566;6.994;2023-03-03T13:08:29;101959.09;;;8.47;100.00
48553;BME280;34335;51.566;6.994;2023-03-03T13:14:50;101953.44;;;8.94;100.00
48553;BME280;34335;51.566;6.994;2023-03-03T13:17:02;101951.13;;;9.42;100.00
48553;BME280;34335;51.566;6.994;2023-03-03T13:19:53;101953.81;;;9.83;100.00
48553;BME280;34335;51.566;6.994;2023-03-03T13:25:25;101947.47;;;9.70;96.98
48553;BME280;34335;51.566;6.994;2023-03-03T13:28:00;101945.50;;;10.00;99.15
48553;BME280;34335;51.566;6.994;2023-03-03T13:30:32;101938.81;;;10.54;94.45
48553;BME280;34335;51.566;6.994;2023-03-03T13:33:11;101933.72;;;10.60;91.39
48553;BME280;34335;51.566;6.994;2023-03-03T13:35:44;101939.53;;;10.04;100.00
48553;BME280;34335;51.566;6.994;2023-03-03T13:38:26;101940.25;;;10.39;82.23
48553;BME280;34335;51.566;6.994;2023-03-03T13:41:04;101942.81;;;9.95;85.10
48553;BME280;34335;51.566;6.994;2023-03-03T13:43:37;101943.53;;;10.29;85.69
48553;BME280;34335;51.566;6.994;2023-03-03T13:49:18;101930.66;;;10.37;100.00
48553;BME280;34335;51.566;6.994;2023-03-03T13:57:54;101920.34;;;11.43;84.88
48553;BME280;34335;51.566;6.994;2023-03-03T14:03:24;101915.66;;;10.23;80.17
48553;BME280;34335;51.566;6.994;2023-03-03T14:05:56;101909.91;;;11.41;90.96
48553;BME280;34335;51.566;6.994;2023-03-03T14:08:47;101914.56;;;11.05;68.60
48553;BME280;34335;51.566;6.994;2023-03-03T14:11:23;101914.44;;;10.98;69.62
48553;BME280;34335;51.566;6.994;2023-03-03T14:14:15;101907.28;;;11.40;86.87
48553;BME280;34335;51.566;6.994;2023-03-03T14:16:50;101907.31;;;12.04;82.44
48553;BME280;34335;51.566;6.994;2023-03-03T14:19:22;101901.78;;;11.82;93.21
48553;BME280;34335;51.566;6.994;2023-03-03T14:22:15;101893.66;;;12.27;78.37
48553;BME280;34335;51.566;6.994;2023-03-03T14:27:24;101898.44;;;11.93;71.43
48553;BME280;34335;51.566;6.994;2023-03-03T14:29:50;101900.84;;;12.50;76.48
48553;BME280;34335;51.566;6.994;2023-03-03T14:32:26;101888.19;;;12.88;82.71
48553;BME280;34335;51.566;6.994;2023-03-03T14:35:00;101891.44;;;13.92;69.85
48553;BME280;34335;51.566;6.994;2023-03-03T14:37:47;101894.69;;;13.45;65.39
48553;BME280;34335;51.566;6.994;2023-03-03T14:48:10;101877.28;;;13.47;75.39
48553;BME280;34335;51.566;6.994;2023-03-03T14:50:41;101881.03;;;14.06;67.57
48553;BME280;34335;51.566;6.994;2023-03-03T14:53:19;101884.22;;;13.45;74.78
48553;BME280;34335;51.566;6.994;2023-03-03T14:55:54;101887.88;;;13.76;60.49
48553;BME280;34335;51.566;6.994;2023-03-03T15:00:49;101883.69;;;11.29;62.20
48553;BME280;34335;51.566;6.994;2023-03-03T15:03:22;101877.91;;;13.15;75.68
48553;BME280;34335;51.566;6.994;2023-03-03T15:05:54;101875.47;;;12.36;63.87
48553;BME280;34335;51.566;6.994;2023-03-03T15:08:35;101882.13;;;9.51;68.16
48553;BME280;34335;51.566;6.994;2023-03-03T15:11:22;101871.00;;;10.43;77.70
48553;BME280;34335;51.566;6.994;2023-03-03T15:13:51;101879.88;;;7.96;75.96
48553;BME280;34335;51.566;6.994;2023-03-03T15:16:19;101870.41;;;8.59;100.00
48553;BME280;34335;51.566;6.994;2023-03-03T15:21:28;101876.16;;;9.98;74.05
48553;BME280;34335;51.566;6.994;2023-03-03T15:24:04;101860.00;;;11.12;74.25
48553;BME280;34335;51.566;6.994;2023-03-03T15:26:44;101871.88;;;9.59;70.51
48553;BME280;34335;51.566;6.994;2023-03-03T15:29:19;101859.91;;;10.09;93.67
48553;BME280;34335;51.566;6.994;2023-03-03T15:31:54;101847.25;;;11.30;90.10
48553;BME280;34335;51.566;6.994;2023-03-03T15:43:12;101840.09;;;10.14;83.56
48553;BME280;34335;51.566;6.994;2023-03-03T15:46:14;101847.56;;;9.56;73.95
48553;BME280;34335;51.566;6.994;2023-03-03T15:51:49;101832.41;;;10.68;75.13
48553;BME280;34335;51.566;6.994;2023-03-03T15:54:35;101826.59;;;10.34;70.49
48553;BME280;34335;51.566;6.994;2023-03-03T15:57:12;101828.31;;;10.35;73.68
48553;BME280;34335;51.566;6.994;2023-03-03T16:00:08;101838.53;;;9.37;84.07